sensor_id;sensor_type;location;lat;lon;timestamp;pressure;altitude;pressure_sealevel;temperature;humidity
66703;BME280;60933;46.398;-63.798;2022-07-23T00:02:22;100730.44;;;27.08;59.93
66703;BME280;60933;46.398;-63.798;2022-07-23T00:04:48;100735.63;;;26.99;59.15
66703;BME280;60933;46.398;-63.798;2022-07-23T00:07:15;100741.72;;;26.82;60.19
66703;BME280;60933;46.398;-63.798;2022-07-23T00:09:41;100735.59;;;26.62;61.15
66703;BME280;60933;46.398;-63.798;2022-07-23T00:12:07;100746.50;;;26.49;61.23
66703;BME280;60933;46.398;-63.798;2022-07-23T00:14:33;100737.03;;;26.36;61.36
66703;BME280;60933;46.398;-63.798;2022-07-23T00:16:59;100739.84;;;26.25;61.68
66703;BME280;60933;46.398;-63.798;2022-07-23T00:19:25;100746.53;;;26.10;62.36
66703;BME280;60933;46.398;-63.798;2022-07-23T00:21:51;100743.72;;;25.91;62.30
66703;BME280;60933;46.398;-63.798;2022-07-23T00:24:17;100748.00;;;25.83;62.16
66703;BME280;60933;46.398;-63.798;2022-07-23T00:26:43;100756.06;;;25.71;62.98
66703;BME280;60933;46.398;-63.798;2022-07-23T00:29:09;100766.19;;;25.56;63.02
66703;BME280;60933;46.398;-63.798;2022-07-23T00:31:35;100770.63;;;25.46;63.91
66703;BME280;60933;46.398;-63.798;2022-07-23T00:34:01;100766.09;;;25.37;63.22
66703;BME280;60933;46.398;-63.798;2022-07-23T00:36:27;100765.78;;;25.30;61.65
66703;BME280;60933;46.398;-63.798;2022-07-23T00:38:54;100771.06;;;25.20;63.92
66703;BME280;60933;46.398;-63.798;2022-07-23T00:41:20;100766.56;;;25.11;62.91
66703;BME280;60933;46.398;-63.798;2022-07-23T00:43:46;100766.66;;;25.00;63.46
66703;BME280;60933;46.398;-63.798;2022-07-23T00:46:12;100762.03;;;24.92;64.51
66703;BME280;60933;46.398;-63.798;2022-07-23T00:48:38;100770.47;;;24.86;64.03
66703;BME280;60933;46.398;-63.798;2022-07-23T00:51:04;100777.97;;;24.80;64.65
66703;BME280;60933;46.398;-63.798;2022-07-23T00:53:31;100780.78;;;24.68;64.38
66703;BME280;60933;46.398;-63.798;2022-07-23T00:55:58;100772.41;;;24.62;62.82
66703;BME280;60933;46.398;-63.798;2022-07-23T00:58:24;100786.66;;;24.60;62.46
66703;BME280;60933;46.398;-63.798;2022-07-23T01:00:50;100789.00;;;24.53;64.71
66703;BME280;60933;46.398;-63.798;2022-07-23T01:03:16;100787.13;;;24.44;62.97
66703;BME280;60933;46.398;-63.798;2022-07-23T01:05:42;100791.25;;;24.37;65.03
66703;BME280;60933;46.398;-63.798;2022-07-23T01:08:10;100789.34;;;24.27;64.80
66703;BME280;60933;46.398;-63.798;2022-07-23T01:10:39;100797.63;;;24.23;65.92
66703;BME280;60933;46.398;-63.798;2022-07-23T01:13:08;100796.47;;;24.15;65.77
66703;BME280;60933;46.398;-63.798;2022-07-23T01:15:40;100806.44;;;24.12;66.34
66703;BME280;60933;46.398;-63.798;2022-07-23T01:18:21;100810.41;;;24.06;67.12
66703;BME280;60933;46.398;-63.798;2022-07-23T01:20:58;100806.22;;;24.03;65.23
66703;BME280;60933;46.398;-63.798;2022-07-23T01:23:24;100803.13;;;23.98;65.86
66703;BME280;60933;46.398;-63.798;2022-07-23T01:25:54;100802.88;;;23.90;67.19
66703;BME280;60933;46.398;-63.798;2022-07-23T01:28:27;100811.88;;;23.87;66.88
66703;BME280;60933;46.398;-63.798;2022-07-23T01:31:02;100804.69;;;23.78;67.99
66703;BME280;60933;46.398;-63.798;2022-07-23T01:33:38;100815.38;;;23.77;67.56
66703;BME280;60933;46.398;-63.798;2022-07-23T01:36:04;100821.81;;;23.73;65.93
66703;BME280;60933;46.398;-63.798;2022-07-23T01:38:44;100827.72;;;23.65;67.27
66703;BME280;60933;46.398;-63.798;2022-07-23T01:41:14;100821.97;;;23.60;66.85
66703;BME280;60933;46.398;-63.798;2022-07-23T01:43:45;100827.59;;;23.55;66.29
66703;BME280;60933;46.398;-63.798;2022-07-23T01:46:30;100827.25;;;23.48;67.92
66703;BME280;60933;46.398;-63.798;2022-07-23T01:49:16;100823.19;;;23.44;68.26
66703;BME280;60933;46.398;-63.798;2022-07-23T01:51:42;100820.78;;;23.41;67.10
66703;BME280;60933;46.398;-63.798;2022-07-23T01:54:29;100816.94;;;23.34;68.89
66703;BME280;60933;46.398;-63.798;2022-07-23T02:00:19;100827.09;;;23.27;67.47
66703;BME280;60933;46.398;-63.798;2022-07-23T02:02:45;100827.00;;;23.29;65.35
66703;BME280;60933;46.398;-63.798;2022-07-23T02:05:11;100817.19;;;23.31;63.49
66703;BME280;60933;46.398;-63.798;2022-07-23T02:07:37;100816.94;;;23.34;64.60
66703;BME280;60933;46.398;-63.798;2022-07-23T02:10:03;100810.34;;;23.28;66.45
66703;BME280;60933;46.398;-63.798;2022-07-23T02:12:30;100813.25;;;23.25;67.99
66703;BME280;60933;46.398;-63.798;2022-07-23T02:14:56;100817.91;;;23.21;64.81
66703;BME280;60933;46.398;-63.798;2022-07-23T02:17:22;100811.56;;;23.24;65.29
66703;BME280;60933;46.398;-63.798;2022-07-23T02:19:48;100812.88;;;23.18;65.22
66703;BME280;60933;46.398;-63.798;2022-07-23T02:22:14;100821.81;;;23.16;67.47
66703;BME280;60933;46.398;-63.798;2022-07-23T02:24:40;100822.16;;;23.11;68.08
66703;BME280;60933;46.398;-63.798;2022-07-23T02:27:06;100825.03;;;23.08;67.92
66703;BME280;60933;46.398;-63.798;2022-07-23T02:29:32;100817.38;;;23.05;67.00
66703;BME280;60933;46.398;-63.798;2022-07-23T02:31:58;100821.19;;;23.01;70.06
66703;BME280;60933;46.398;-63.798;2022-07-23T02:34:24;100819.97;;;22.93;70.25
66703;BME280;60933;46.398;-63.798;2022-07-23T02:36:50;100827.28;;;22.90;68.04
66703;BME280;60933;46.398;-63.798;2022-07-23T02:39:16;100831.94;;;22.86;70.02
66703;BME280;60933;46.398;-63.798;2022-07-23T02:41:42;100836.25;;;22.87;68.90
66703;BME280;60933;46.398;-63.798;2022-07-23T02:44:08;100830.16;;;22.87;68.78
66703;BME280;60933;46.398;-63.798;2022-07-23T02:46:34;100843.19;;;22.88;68.54
66703;BME280;60933;46.398;-63.798;2022-07-23T02:49:00;100840.69;;;22.87;66.73
66703;BME280;60933;46.398;-63.798;2022-07-23T02:51:27;100846.16;;;22.84;67.61
66703;BME280;60933;46.398;-63.798;2022-07-23T02:53:53;100847.56;;;22.76;71.64
66703;BME280;60933;46.398;-63.798;2022-07-23T02:56:19;100840.38;;;22.67;71.44
66703;BME280;60933;46.398;-63.798;2022-07-23T02:58:45;100849.53;;;22.61;71.49
66703;BME280;60933;46.398;-63.798;2022-07-23T03:01:11;100851.56;;;22.58;72.72
66703;BME280;60933;46.398;-63.798;2022-07-23T03:03:37;100857.16;;;22.53;73.11
66703;BME280;60933;46.398;-63.798;2022-07-23T03:06:03;100861.81;;;22.50;72.11
66703;BME280;60933;46.398;-63.798;2022-07-23T03:08:29;100867.19;;;22.48;73.03
66703;BME280;60933;46.398;-63.798;2022-07-23T03:10:55;100860.50;;;22.44;74.04
66703;BME280;60933;46.398;-63.798;2022-07-23T03:13:21;100868.59;;;22.41;72.92
66703;BME280;60933;46.398;-63.798;2022-07-23T03:15:47;100862.59;;;22.39;71.35
66703;BME280;60933;46.398;-63.798;2022-07-23T03:18:13;100874.81;;;22.40;71.37
66703;BME280;60933;46.398;-63.798;2022-07-23T03:20:39;100876.78;;;22.36;74.00
66703;BME280;60933;46.398;-63.798;2022-07-23T03:23:05;100882.28;;;22.33;71.77
66703;BME280;60933;46.398;-63.798;2022-07-23T03:25:32;100879.03;;;22.29;73.77
66703;BME280;60933;46.398;-63.798;2022-07-23T03:27:58;100885.13;;;22.30;71.67
66703;BME280;60933;46.398;-63.798;2022-07-23T03:30:24;100885.25;;;22.28;70.84
66703;BME280;60933;46.398;-63.798;2022-07-23T03:32:50;100900.16;;;22.28;72.62
66703;BME280;60933;46.398;-63.798;2022-07-23T03:35:16;100906.69;;;22.22;74.29
66703;BME280;60933;46.398;-63.798;2022-07-23T03:37:42;100905.44;;;22.15;73.86
66703;BME280;60933;46.398;-63.798;2022-07-23T03:40:08;100905.19;;;22.07;74.97
66703;BME280;60933;46.398;-63.798;2022-07-23T03:42:34;100912.34;;;22.05;74.49
66703;BME280;60933;46.398;-63.798;2022-07-23T03:45:03;100915.28;;;22.00;75.64
66703;BME280;60933;46.398;-63.798;2022-07-23T03:47:29;100921.59;;;21.97;73.49
66703;BME280;60933;46.398;-63.798;2022-07-23T03:49:55;100921.69;;;21.96;75.18
66703;BME280;60933;46.398;-63.798;2022-07-23T03:52:21;100915.09;;;21.90;75.32
66703;BME280;60933;46.398;-63.798;2022-07-23T03:54:48;100925.06;;;21.85;75.54
66703;BME280;60933;46.398;-63.798;2022-07-23T03:57:14;100927.94;;;21.82;76.35
66703;BME280;60933;46.398;-63.798;2022-07-23T03:59:40;100922.88;;;21.79;75.87
66703;BME280;60933;46.398;-63.798;2022-07-23T04:02:06;100923.19;;;21.74;76.61
66703;BME280;60933;46.398;-63.798;2022-07-23T04:04:32;100923.41;;;21.71;76.82
66703;BME280;60933;46.398;-63.798;2022-07-23T04:06:58;100930.56;;;21.69;76.33
66703;BME280;60933;46.398;-63.798;2022-07-23T04:09:24;100931.63;;;21.66;76.68
66703;BME280;60933;46.398;-63.798;2022-07-23T04:11:50;100931.06;;;21.61;77.43
66703;BME280;60933;46.398;-63.798;2022-07-23T04:14:16;100931.31;;;21.58;77.32
66703;BME280;60933;46.398;-63.798;2022-07-23T04:16:43;100933.25;;;21.55;76.72
66703;BME280;60933;46.398;-63.798;2022-07-23T04:19:09;100936.00;;;21.53;76.37
66703;BME280;60933;46.398;-63.798;2022-07-23T04:21:35;100939.56;;;21.52;76.67
66703;BME280;60933;46.398;-63.798;2022-07-23T04:24:01;100944.91;;;21.50;77.09
66703;BME280;60933;46.398;-63.798;2022-07-23T04:26:27;100943.44;;;21.46;76.74
66703;BME280;60933;46.398;-63.798;2022-07-23T04:28:53;100936.72;;;21.42;77.65
66703;BME280;60933;46.398;-63.798;2022-07-23T04:31:19;100933.13;;;21.43;77.51
66703;BME280;60933;46.398;-63.798;2022-07-23T04:33:45;100942.06;;;21.41;77.64
66703;BME280;60933;46.398;-63.798;2022-07-23T04:36:11;100944.06;;;21.37;75.97
66703;BME280;60933;46.398;-63.798;2022-07-23T04:38:37;100938.94;;;21.35;77.22
66703;BME280;60933;46.398;-63.798;2022-07-23T04:41:04;100943.63;;;21.30;77.11
66703;BME280;60933;46.398;-63.798;2022-07-23T04:43:30;100938.78;;;21.24;75.97
66703;BME280;60933;46.398;-63.798;2022-07-23T04:45:56;100944.66;;;21.28;77.43
66703;BME280;60933;46.398;-63.798;2022-07-23T04:48:22;100942.16;;;21.26;76.56
66703;BME280;60933;46.398;-63.798;2022-07-23T04:50:48;100946.66;;;21.24;77.19
66703;BME280;60933;46.398;-63.798;2022-07-23T04:53:14;100947.59;;;21.23;77.91
66703;BME280;60933;46.398;-63.798;2022-07-23T04:55:41;100940.88;;;21.19;77.49
66703;BME280;60933;46.398;-63.798;2022-07-23T04:58:07;100937.53;;;21.17;75.65
66703;BME280;60933;46.398;-63.798;2022-07-23T05:00:33;100941.84;;;21.18;77.23
66703;BME280;60933;46.398;-63.798;2022-07-23T05:02:59;100933.13;;;21.17;76.93
66703;BME280;60933;46.398;-63.798;2022-07-23T05:05:25;100939.44;;;21.15;77.83
66703;BME280;60933;46.398;-63.798;2022-07-23T05:07:51;100936.25;;;21.10;77.82
66703;BME280;60933;46.398;-63.798;2022-07-23T05:10:17;100938.88;;;21.10;78.03
66703;BME280;60933;46.398;-63.798;2022-07-23T05:12:43;100942.53;;;21.07;77.84
66703;BME280;60933;46.398;-63.798;2022-07-23T05:15:09;100944.41;;;21.05;79.20
66703;BME280;60933;46.398;-63.798;2022-07-23T05:17:36;100941.28;;;21.00;77.25
66703;BME280;60933;46.398;-63.798;2022-07-23T05:20:02;100948.19;;;21.01;77.78
66703;BME280;60933;46.398;-63.798;2022-07-23T05:22:28;100945.69;;;20.99;78.20
66703;BME280;60933;46.398;-63.798;2022-07-23T05:24:55;100947.47;;;20.99;78.92
66703;BME280;60933;46.398;-63.798;2022-07-23T05:27:21;100955.44;;;20.97;79.13
66703;BME280;60933;46.398;-63.798;2022-07-23T05:29:47;100955.63;;;20.94;78.04
66703;BME280;60933;46.398;-63.798;2022-07-23T05:32:13;100955.72;;;20.93;79.32
66703;BME280;60933;46.398;-63.798;2022-07-23T05:34:39;100953.41;;;20.88;77.99
66703;BME280;60933;46.398;-63.798;2022-07-23T05:37:05;100959.47;;;20.88;78.03
66703;BME280;60933;46.398;-63.798;2022-07-23T05:39:31;100969.78;;;20.92;78.91
66703;BME280;60933;46.398;-63.798;2022-07-23T05:41:58;100963.72;;;20.91;78.87
66703;BME280;60933;46.398;-63.798;2022-07-23T05:44:24;100964.72;;;20.88;78.71
66703;BME280;60933;46.398;-63.798;2022-07-23T05:46:50;100983.94;;;20.89;77.82
66703;BME280;60933;46.398;-63.798;2022-07-23T05:49:16;100978.81;;;20.87;79.22
66703;BME280;60933;46.398;-63.798;2022-07-23T05:51:42;100985.94;;;20.85;78.77
66703;BME280;60933;46.398;-63.798;2022-07-23T05:54:08;100994.00;;;20.82;78.17
66703;BME280;60933;46.398;-63.798;2022-07-23T05:56:34;100983.78;;;20.78;77.27
66703;BME280;60933;46.398;-63.798;2022-07-23T05:59:00;100980.22;;;20.79;78.63
66703;BME280;60933;46.398;-63.798;2022-07-23T06:01:26;100981.38;;;20.75;77.93
66703;BME280;60933;46.398;-63.798;2022-07-23T06:03:52;100986.69;;;20.73;77.62
66703;BME280;60933;46.398;-63.798;2022-07-23T06:06:18;100985.94;;;20.71;77.79
66703;BME280;60933;46.398;-63.798;2022-07-23T06:19:07;100969.41;;;20.56;78.89
66703;BME280;60933;46.398;-63.798;2022-07-23T06:21:53;100983.25;;;20.58;78.92
66703;BME280;60933;46.398;-63.798;2022-07-23T06:24:30;100976.44;;;20.55;78.22
66703;BME280;60933;46.398;-63.798;2022-07-23T06:27:00;100977.38;;;20.54;77.90
66703;BME280;60933;46.398;-63.798;2022-07-23T06:29:48;100978.47;;;20.50;75.11
66703;BME280;60933;46.398;-63.798;2022-07-23T06:32:22;100982.78;;;20.51;73.01
66703;BME280;60933;46.398;-63.798;2022-07-23T06:34:49;100987.75;;;20.56;74.72
66703;BME280;60933;46.398;-63.798;2022-07-23T06:37:15;100985.13;;;20.56;74.67
66703;BME280;60933;46.398;-63.798;2022-07-23T06:39:41;100986.16;;;20.53;74.31
66703;BME280;60933;46.398;-63.798;2022-07-23T06:42:07;100992.72;;;20.61;77.23
66703;BME280;60933;46.398;-63.798;2022-07-23T06:44:34;100994.78;;;20.55;77.87
66703;BME280;60933;46.398;-63.798;2022-07-23T06:47:00;100993.28;;;20.51;73.86
66703;BME280;60933;46.398;-63.798;2022-07-23T06:49:26;100993.22;;;20.53;75.23
66703;BME280;60933;46.398;-63.798;2022-07-23T06:51:52;100993.28;;;20.51;75.73
66703;BME280;60933;46.398;-63.798;2022-07-23T06:54:18;100978.06;;;20.44;73.63
66703;BME280;60933;46.398;-63.798;2022-07-23T06:56:44;101001.25;;;20.50;73.65
66703;BME280;60933;46.398;-63.798;2022-07-23T06:59:10;101002.94;;;20.51;73.56
66703;BME280;60933;46.398;-63.798;2022-07-23T07:01:36;101009.94;;;20.50;73.31
66703;BME280;60933;46.398;-63.798;2022-07-23T07:04:03;101008.09;;;20.52;73.57
66703;BME280;60933;46.398;-63.798;2022-07-23T07:06:29;101000.22;;;20.52;74.09
66703;BME280;60933;46.398;-63.798;2022-07-23T07:08:55;101002.94;;;20.51;74.44
66703;BME280;60933;46.398;-63.798;2022-07-23T07:11:22;101016.06;;;20.51;74.99
66703;BME280;60933;46.398;-63.798;2022-07-23T07:13:49;101010.16;;;20.47;75.24
66703;BME280;60933;46.398;-63.798;2022-07-23T07:16:15;101012.69;;;20.49;74.40
66703;BME280;60933;46.398;-63.798;2022-07-23T07:18:41;101018.03;;;20.47;74.09
66703;BME280;60933;46.398;-63.798;2022-07-23T07:21:07;101007.44;;;20.49;73.30
66703;BME280;60933;46.398;-63.798;2022-07-23T07:23:34;101011.91;;;20.47;78.38
66703;BME280;60933;46.398;-63.798;2022-07-23T07:26:00;101009.63;;;20.42;77.60
66703;BME280;60933;46.398;-63.798;2022-07-23T07:28:26;101004.72;;;20.36;76.30
66703;BME280;60933;46.398;-63.798;2022-07-23T07:30:52;101007.44;;;20.34;78.17
66703;BME280;60933;46.398;-63.798;2022-07-23T07:33:18;101018.13;;;20.31;78.46
66703;BME280;60933;46.398;-63.798;2022-07-23T07:35:44;101011.38;;;20.27;76.02
66703;BME280;60933;46.398;-63.798;2022-07-23T07:38:10;101018.50;;;20.25;73.63
66703;BME280;60933;46.398;-63.798;2022-07-23T07:40:36;101003.06;;;20.20;73.97
66703;BME280;60933;46.398;-63.798;2022-07-23T07:43:03;101022.72;;;20.28;74.72
66703;BME280;60933;46.398;-63.798;2022-07-23T07:45:29;101032.38;;;20.27;74.06
66703;BME280;60933;46.398;-63.798;2022-07-23T07:47:55;101040.22;;;20.27;76.23
66703;BME280;60933;46.398;-63.798;2022-07-23T07:50:21;101033.41;;;20.24;74.66
66703;BME280;60933;46.398;-63.798;2022-07-23T07:52:47;101035.91;;;20.26;74.03
66703;BME280;60933;46.398;-63.798;2022-07-23T07:55:13;101027.13;;;20.27;75.65
66703;BME280;60933;46.398;-63.798;2022-07-23T07:57:40;101027.22;;;20.26;76.38
66703;BME280;60933;46.398;-63.798;2022-07-23T08:00:08;101036.84;;;20.25;75.46
66703;BME280;60933;46.398;-63.798;2022-07-23T08:05:11;101028.16;;;20.24;76.77
66703;BME280;60933;46.398;-63.798;2022-07-23T08:07:37;101035.25;;;20.22;74.23
66703;BME280;60933;46.398;-63.798;2022-07-23T08:10:09;101035.09;;;20.26;75.95
66703;BME280;60933;46.398;-63.798;2022-07-23T08:12:49;101038.63;;;20.24;74.44
66703;BME280;60933;46.398;-63.798;2022-07-23T08:15:18;101044.81;;;20.23;75.86
66703;BME280;60933;46.398;-63.798;2022-07-23T08:17:45;101039.66;;;20.22;74.31
66703;BME280;60933;46.398;-63.798;2022-07-23T08:20:14;101031.97;;;20.19;75.06
66703;BME280;60933;46.398;-63.798;2022-07-23T08:22:50;101037.41;;;20.16;75.10
66703;BME280;60933;46.398;-63.798;2022-07-23T08:25:21;101041.91;;;20.14;74.27
66703;BME280;60933;46.398;-63.798;2022-07-23T08:27:47;101049.69;;;20.15;73.32
66703;BME280;60933;46.398;-63.798;2022-07-23T08:30:14;101054.09;;;20.15;74.08
66703;BME280;60933;46.398;-63.798;2022-07-23T08:32:55;101061.19;;;20.13;73.92
66703;BME280;60933;46.398;-63.798;2022-07-23T08:35:24;101066.44;;;20.13;75.04
66703;BME280;60933;46.398;-63.798;2022-07-23T08:37:50;101062.22;;;20.10;75.48
66703;BME280;60933;46.398;-63.798;2022-07-23T08:40:29;101066.44;;;20.13;76.22
66703;BME280;60933;46.398;-63.798;2022-07-23T08:42:56;101051.81;;;20.08;75.13
66703;BME280;60933;46.398;-63.798;2022-07-23T08:45:25;101056.13;;;20.09;76.85
66703;BME280;60933;46.398;-63.798;2022-07-23T08:47:54;101060.69;;;20.06;76.51
66703;BME280;60933;46.398;-63.798;2022-07-23T08:50:30;101052.28;;;20.01;76.19
66703;BME280;60933;46.398;-63.798;2022-07-23T08:52:58;101045.06;;;19.90;75.41
66703;BME280;60933;46.398;-63.798;2022-07-23T08:55:40;101058.94;;;19.92;75.40
66703;BME280;60933;46.398;-63.798;2022-07-23T08:58:08;101061.72;;;19.89;75.97
66703;BME280;60933;46.398;-63.798;2022-07-23T09:00:48;101078.47;;;19.86;75.60
66703;BME280;60933;46.398;-63.798;2022-07-23T09:03:20;101075.09;;;19.84;76.02
66703;BME280;60933;46.398;-63.798;2022-07-23T09:05:50;101065.69;;;19.80;76.91
66703;BME280;60933;46.398;-63.798;2022-07-23T09:12:01;101063.50;;;19.72;76.49
66703;BME280;60933;46.398;-63.798;2022-07-23T09:15:12;101078.47;;;19.70;76.48
66703;BME280;60933;46.398;-63.798;2022-07-23T09:17:55;101080.25;;;19.70;76.22
66703;BME280;60933;46.398;-63.798;2022-07-23T09:20:22;101071.56;;;19.69;76.31
66703;BME280;60933;46.398;-63.798;2022-07-23T09:22:48;101080.16;;;19.71;76.17
66703;BME280;60933;46.398;-63.798;2022-07-23T09:25:17;101076.59;;;19.72;76.67
66703;BME280;60933;46.398;-63.798;2022-07-23T09:28:22;101089.53;;;19.75;77.86
66703;BME280;60933;46.398;-63.798;2022-07-23T09:30:51;101076.34;;;19.77;77.03
66703;BME280;60933;46.398;-63.798;2022-07-23T09:33:17;101087.47;;;19.81;76.04
66703;BME280;60933;46.398;-63.798;2022-07-23T09:38:56;101086.22;;;19.88;74.03
66703;BME280;60933;46.398;-63.798;2022-07-23T09:41:22;101085.13;;;19.92;75.40
66703;BME280;60933;46.398;-63.798;2022-07-23T09:43:56;101094.47;;;19.96;75.68
66703;BME280;60933;46.398;-63.798;2022-07-23T09:46:48;101096.06;;;19.99;76.54
66703;BME280;60933;46.398;-63.798;2022-07-23T09:50:10;101109.06;;;20.00;73.11
66703;BME280;60933;46.398;-63.798;2022-07-23T09:53:00;101101.22;;;20.00;76.60
66703;BME280;60933;46.398;-63.798;2022-07-23T09:55:53;101094.31;;;19.99;76.95
66703;BME280;60933;46.398;-63.798;2022-07-23T10:01:33;101104.19;;;19.94;75.65
66703;BME280;60933;46.398;-63.798;2022-07-23T10:04:23;101118.72;;;20.00;75.05
66703;BME280;60933;46.398;-63.798;2022-07-23T10:06:58;101128.75;;;20.07;75.27
66703;BME280;60933;46.398;-63.798;2022-07-23T10:09:47;101126.69;;;20.13;75.20
66703;BME280;60933;46.398;-63.798;2022-07-23T10:16:05;101112.41;;;20.18;73.31
66703;BME280;60933;46.398;-63.798;2022-07-23T10:21:40;101148.91;;;20.36;73.68
66703;BME280;60933;46.398;-63.798;2022-07-23T10:27:48;101135.09;;;20.48;71.99
66703;BME280;60933;46.398;-63.798;2022-07-23T10:37:32;101130.00;;;20.60;73.17
66703;BME280;60933;46.398;-63.798;2022-07-23T10:40:16;101130.66;;;20.63;71.22
66703;BME280;60933;46.398;-63.798;2022-07-23T10:42:47;101137.72;;;20.63;70.98
66703;BME280;60933;46.398;-63.798;2022-07-23T10:45:36;101141.91;;;20.65;72.93
66703;BME280;60933;46.398;-63.798;2022-07-23T10:48:17;101144.44;;;20.67;72.06
66703;BME280;60933;46.398;-63.798;2022-07-23T10:51:07;101148.50;;;20.73;71.99
66703;BME280;60933;46.398;-63.798;2022-07-23T10:53:59;101149.06;;;20.78;70.58
66703;BME280;60933;46.398;-63.798;2022-07-23T10:57:04;101156.94;;;20.78;72.55
66703;BME280;60933;46.398;-63.798;2022-07-23T11:05:56;101139.97;;;20.83;70.48
66703;BME280;60933;46.398;-63.798;2022-07-23T11:08:22;101138.00;;;20.87;70.09
66703;BME280;60933;46.398;-63.798;2022-07-23T11:18:59;101153.28;;;20.95;71.93
66703;BME280;60933;46.398;-63.798;2022-07-23T11:21:49;101165.16;;;21.00;70.31
66703;BME280;60933;46.398;-63.798;2022-07-23T11:24:28;101164.88;;;21.05;69.70
66703;BME280;60933;46.398;-63.798;2022-07-23T11:26:57;101167.22;;;21.10;70.09
66703;BME280;60933;46.398;-63.798;2022-07-23T11:34:45;101166.81;;;21.16;69.92
66703;BME280;60933;46.398;-63.798;2022-07-23T11:37:37;101169.38;;;21.17;69.90
66703;BME280;60933;46.398;-63.798;2022-07-23T11:40:17;101170.41;;;21.15;71.25
66703;BME280;60933;46.398;-63.798;2022-07-23T11:45:47;101177.31;;;21.16;72.13
66703;BME280;60933;46.398;-63.798;2022-07-23T11:48:22;101173.47;;;21.22;72.42
66703;BME280;60933;46.398;-63.798;2022-07-23T11:50:56;101187.91;;;21.29;70.82
66703;BME280;60933;46.398;-63.798;2022-07-23T11:53:30;101187.91;;;21.29;72.04
66703;BME280;60933;46.398;-63.798;2022-07-23T11:56:08;101177.41;;;21.29;70.57
66703;BME280;60933;46.398;-63.798;2022-07-23T11:58:35;101180.72;;;21.45;69.48
66703;BME280;60933;46.398;-63.798;2022-07-23T12:01:03;101182.44;;;21.46;70.42
66703;BME280;60933;46.398;-63.798;2022-07-23T12:03:30;101171.53;;;21.53;70.19
66703;BME280;60933;46.398;-63.798;2022-07-23T12:05:57;101168.63;;;21.57;70.57
66703;BME280;60933;46.398;-63.798;2022-07-23T12:08:24;101172.09;;;21.58;70.23
66703;BME280;60933;46.398;-63.798;2022-07-23T12:10:51;101172.72;;;21.61;71.16
66703;BME280;60933;46.398;-63.798;2022-07-23T12:13:38;101174.13;;;21.67;71.56
66703;BME280;60933;46.398;-63.798;2022-07-23T12:16:14;101182.25;;;21.77;70.20
66703;BME280;60933;46.398;-63.798;2022-07-23T12:18:44;101175.22;;;21.77;72.27
66703;BME280;60933;46.398;-63.798;2022-07-23T12:23:48;101173.66;;;21.88;71.37
66703;BME280;60933;46.398;-63.798;2022-07-23T12:26:24;101164.44;;;21.95;70.35
66703;BME280;60933;46.398;-63.798;2022-07-23T12:29:02;101165.91;;;21.99;70.93
66703;BME280;60933;46.398;-63.798;2022-07-23T12:31:58;101163.50;;;22.09;70.52
66703;BME280;60933;46.398;-63.798;2022-07-23T12:34:35;101154.19;;;22.18;69.53
66703;BME280;60933;46.398;-63.798;2022-07-23T12:37:02;101157.44;;;22.21;69.68
66703;BME280;60933;46.398;-63.798;2022-07-23T12:39:41;101155.78;;;22.33;69.17
66703;BME280;60933;46.398;-63.798;2022-07-23T12:42:12;101158.00;;;22.39;69.79
66703;BME280;60933;46.398;-63.798;2022-07-23T12:45:12;101155.88;;;22.44;70.43
66703;BME280;60933;46.398;-63.798;2022-07-23T12:48:17;101159.78;;;22.52;69.86
66703;BME280;60933;46.398;-63.798;2022-07-23T12:53:19;101159.22;;;22.72;68.79
66703;BME280;60933;46.398;-63.798;2022-07-23T12:55:47;101157.03;;;22.79;69.14
66703;BME280;60933;46.398;-63.798;2022-07-23T12:58:19;101156.69;;;22.84;69.47
66703;BME280;60933;46.398;-63.798;2022-07-23T13:03:22;101159.81;;;23.02;68.02
66703;BME280;60933;46.398;-63.798;2022-07-23T13:05:49;101150.66;;;23.07;68.53
66703;BME280;60933;46.398;-63.798;2022-07-23T13:08:15;101157.28;;;23.13;68.66
66703;BME280;60933;46.398;-63.798;2022-07-23T13:10:41;101155.06;;;23.20;68.09
66703;BME280;60933;46.398;-63.798;2022-07-23T13:13:11;101155.13;;;23.31;67.55
66703;BME280;60933;46.398;-63.798;2022-07-23T13:15:37;101156.25;;;23.40;67.63
66703;BME280;60933;46.398;-63.798;2022-07-23T13:18:03;101152.94;;;23.49;67.38
66703;BME280;60933;46.398;-63.798;2022-07-23T13:20:29;101152.28;;;23.59;67.17
66703;BME280;60933;46.398;-63.798;2022-07-23T13:22:57;101150.13;;;23.64;67.58
66703;BME280;60933;46.398;-63.798;2022-07-23T13:25:23;101151.16;;;23.74;66.92
66703;BME280;60933;46.398;-63.798;2022-07-23T13:27:49;101159.06;;;23.85;66.16
66703;BME280;60933;46.398;-63.798;2022-07-23T13:30:15;101145.69;;;23.89;66.26
66703;BME280;60933;46.398;-63.798;2022-07-23T13:32:41;101155.66;;;23.96;66.41
66703;BME280;60933;46.398;-63.798;2022-07-23T13:35:09;101158.56;;;24.05;66.41
66703;BME280;60933;46.398;-63.798;2022-07-23T13:37:35;101172.63;;;24.16;65.58
66703;BME280;60933;46.398;-63.798;2022-07-23T13:40:02;101161.59;;;24.23;65.41
66703;BME280;60933;46.398;-63.798;2022-07-23T13:42:28;101143.13;;;24.23;65.16
66703;BME280;60933;46.398;-63.798;2022-07-23T13:44:54;101170.97;;;24.38;64.91
66703;BME280;60933;46.398;-63.798;2022-07-23T13:47:20;101159.00;;;24.45;65.20
66703;BME280;60933;46.398;-63.798;2022-07-23T13:49:46;101166.56;;;24.50;65.01
66703;BME280;60933;46.398;-63.798;2022-07-23T13:52:12;101165.97;;;24.58;64.81
66703;BME280;60933;46.398;-63.798;2022-07-23T13:54:38;101161.31;;;24.61;64.58
66703;BME280;60933;46.398;-63.798;2022-07-23T13:57:04;101172.00;;;24.71;64.11
66703;BME280;60933;46.398;-63.798;2022-07-23T13:59:30;101168.28;;;24.74;64.05